Flight Track Log - Related Links

Times and Time Zones

All times are in EDT time to prevent confusion due to time zone crossing. See the ICE603 flight status page for this flight to view local times or setup timezone preferences in your user account.

Time Position Orientation Groundspeed Altitude Reporting Facility
EDT Latitude Longitude Course Direction KTS MPH feet Rate Location/Type
Wed 02:07:33 PM 61.7667 -36.6000 244° Southwest 440 506 34,000  Level Gander Center
Wed 02:08:33 PM 61.7167 -36.8167 244° Southwest 440 506 34,000  Level Gander Center
Wed 02:09:33 PM 61.6500 -37.0500 239° Southwest 440 506 34,000  Level Gander Center
Wed 02:10:33 PM 61.6000 -37.2667 244° Southwest 440 506 34,000  Level Gander Center
Wed 02:11:33 PM 61.5500 -37.5000 246° West 440 506 34,000  Level Gander Center
Wed 02:12:33 PM 61.5000 -37.7167 244° Southwest 440 506 34,000  Level Gander Center
Wed 02:13:33 PM 61.4667 -37.9667 255° West 440 506 34,000  Level Gander Center
Wed 02:14:33 PM 61.4000 -38.2000 239° Southwest 440 506 34,000  Level Gander Center
Wed 02:15:33 PM 61.3500 -38.4167 244° Southwest 440 506 34,000  Level Gander Center
Wed 02:16:33 PM 61.3000 -38.6333 244° Southwest 440 506 34,000  Level Gander Center
Wed 02:17:33 PM 61.2500 -38.8500 244° Southwest 440 506 34,000  Level Gander Center
Wed 02:18:33 PM 61.1833 -39.1000 241° Southwest 440 506 34,000  Level Gander Center
Wed 02:19:33 PM 61.1333 -39.3167 245° Southwest 450 518 34,000  Level Gander Center
Wed 02:20:33 PM 61.0833 -39.5333 245° Southwest 450 518 34,000  Level Gander Center
Wed 02:21:33 PM 61.0167 -39.8000 243° Southwest 450 518 34,000  Level Gander Center
Wed 02:22:33 PM 60.9667 -40.0000 243° Southwest 450 518 34,000  Level Gander Center
Wed 02:23:33 PM 60.9167 -40.2167 245° Southwest 450 518 34,000  Level Gander Center
Wed 02:24:00 PM 61.0000 -40.0000 244° Southwest 441 507 34,000  Level ETMS Enhanced Traffic Management System
Wed 02:24:33 PM 60.8667 -40.4667 244° Southwest 450 518 34,000  Level Gander Center
Wed 02:25:33 PM 60.7833 -40.6833 232° Southwest 460 529 34,000  Level Gander Center
Wed 02:26:33 PM 60.7333 -40.9333 248° West 460 529 34,000  Level Gander Center
Wed 02:27:33 PM 60.6833 -41.1333 243° Southwest 460 529 34,000  Level Gander Center
Wed 02:28:33 PM 60.6167 -41.3833 242° Southwest 460 529 34,000  Level Gander Center
Wed 02:29:33 PM 60.5667 -41.6000 245° Southwest 460 529 34,000  Level Gander Center
Wed 02:30:33 PM 60.5167 -41.8333 247° West 460 529 34,000  Level Gander Center
Wed 02:31:33 PM 60.4500 -42.0500 238° Southwest 450 518 34,000  Level Gander Center
Wed 02:32:33 PM 60.3833 -42.2833 240° Southwest 450 518 34,000  Level Gander Center
Wed 02:33:33 PM 60.3333 -42.5000 245° Southwest 450 518 34,000  Level Gander Center
Wed 02:34:33 PM 60.2833 -42.7333 247° West 450 518 34,000  Level Gander Center
Wed 02:35:33 PM 60.2167 -42.9333 236° Southwest 450 518 34,000  Level Gander Center
Wed 02:36:33 PM 60.1667 -43.1333 243° Southwest 450 518 34,000  Level Gander Center
Wed 02:37:33 PM 60.1000 -43.3833 242° Southwest 450 518 34,000  Level Gander Center
Wed 02:38:33 PM 60.0333 -43.5833 236° Southwest 450 518 34,000  Level Gander Center
Wed 02:39:33 PM 59.9833 -43.8167 247° West 460 529 34,000  Level Gander Center
Wed 02:40:33 PM 59.9000 -44.0333 233° Southwest 460 529 34,000  Level Gander Center
Wed 02:41:33 PM 59.8500 -44.2667 247° West 460 529 34,000  Level Gander Center
Wed 02:42:33 PM 59.7833 -44.5000 240° Southwest 460 529 34,000  Level Gander Center
Wed 02:43:33 PM 59.7167 -44.7000 237° Southwest 460 529 34,000  Level Gander Center
Wed 02:44:33 PM 59.6667 -44.9333 247° West 460 529 34,000  Level Gander Center
Wed 02:45:33 PM 59.5833 -45.1333 231° Southwest 460 529 34,000  Level Gander Center
Wed 02:46:33 PM 59.5167 -45.3667 241° Southwest 460 529 34,000  Level Gander Center
Wed 02:47:33 PM 59.4667 -45.5500 242° Southwest 460 529 34,000  Level Gander Center
Wed 02:48:33 PM 59.3833 -45.7833 235° Southwest 460 529 34,000  Level Gander Center
Wed 02:49:33 PM 59.3333 -45.9833 244° Southwest 460 529 34,000  Level Gander Center
Wed 02:50:33 PM 59.2667 -46.2167 241° Southwest 460 529 34,000  Level Gander Center
Wed 02:51:33 PM 59.2000 -46.4000 235° Southwest 460 529 34,000  Level Gander Center
Wed 02:52:33 PM 59.1333 -46.6333 241° Southwest 460 529 34,000  Level Gander Center
Wed 02:53:33 PM 59.0667 -46.8167 235° Southwest 450 518 34,000  Level Gander Center
Wed 02:54:33 PM 59.0000 -47.0167 237° Southwest 450 518 34,000  Level Gander Center
Wed 02:55:33 PM 58.9333 -47.2333 239° Southwest 450 518 34,000  Level Gander Center
Wed 02:56:33 PM 58.8500 -47.4333 231° Southwest 450 518 34,000  Level Gander Center
Wed 02:57:33 PM 58.8000 -47.6500 246° West 450 518 34,000  Level Gander Center
Wed 02:58:33 PM 58.7333 -47.8333 235° Southwest 450 518 34,000  Level Gander Center
Wed 02:59:33 PM 58.6667 -48.0333 237° Southwest 450 518 34,000  Level Gander Center
Wed 03:00:33 PM 58.6000 -48.2500 240° Southwest 450 518 34,000  Level Gander Center
Wed 03:01:33 PM 58.5167 -48.4333 229° Southwest 450 518 34,000  Level Gander Center
Wed 03:02:33 PM 58.4500 -48.6500 240° Southwest 450 518 34,000  Level Gander Center
Wed 03:03:33 PM 58.3833 -48.8333 235° Southwest 450 518 34,000  Level Gander Center
Wed 03:04:33 PM 58.3167 -49.0167 235° Southwest 450 518 34,000  Level Gander Center
Wed 03:05:33 PM 58.2500 -49.2333 240° Southwest 450 518 34,000  Level Gander Center
Wed 03:06:33 PM 58.1667 -49.4167 229° Southwest 450 518 34,000  Level Gander Center
Wed 03:07:33 PM 58.1000 -49.6000 236° Southwest 450 518 34,000 100 Level Gander Center
Wed 03:08:33 PM 58.0333 -49.8167 240° Southwest 450 518 34,200 600 Climbing Gander Center
Wed 03:09:33 PM 57.9667 -50.0000 236° Southwest 440 506 35,200 900 Climbing Gander Center
Wed 03:10:33 PM 57.9167 -50.2000 245° Southwest 440 506 36,000 417 Climbing Gander Center
Wed 03:11:28 PM 58.0000 -50.0000 240° Southwest 433 498 36,000  Level ETMS Enhanced Traffic Management System
Wed 03:12:33 PM 57.7833 -50.5833 240° Southwest 440 506 36,000  Level Gander Center
Wed 03:13:33 PM 57.7333 -50.7833 245° Southwest 440 506 36,000  Level Gander Center
Wed 03:14:33 PM 57.6667 -51.0000 240° Southwest 450 518 36,000  Level Gander Center
Wed 03:15:33 PM 57.6000 -51.2000 238° Southwest 450 518 36,000  Level Gander Center
Wed 03:16:33 PM 57.5500 -51.3833 243° Southwest 450 518 36,000  Level Gander Center
Wed 03:18:00 PM 57.4611 -51.6565 239° Southwest  Level FlightAware Approximate
Wed 03:25:00 PM 57.0238 -52.9565 239° Southwest  Level FlightAware Approximate
Wed 03:26:00 PM 56.9603 -53.1398 238° Southwest  Level FlightAware Approximate
Wed 03:27:00 PM 56.8964 -53.3223 237° Southwest  Level FlightAware Approximate
Wed 03:27:50 PM 56.8333 -53.4667 237° Southwest 410 472 36,000  Level Gander Center
Wed 03:28:00 PM 56.8324 -53.5043 237° Southwest  Level FlightAware Approximate
Wed 03:28:50 PM 56.7833 -53.6500 244° Southwest 410 472 36,000  Level Gander Center
Wed 03:29:00 PM 56.7680 -53.6856 237° Southwest  Level FlightAware Approximate
Wed 03:29:50 PM 56.7167 -53.8167 234° Southwest 410 472 36,000  Level Gander Center
Wed 03:30:00 PM 56.7034 -53.8663 237° Southwest  Level FlightAware Approximate
Wed 03:30:50 PM 56.6667 -53.9833 241° Southwest 400 460 36,000  Level Gander Center
Wed 03:31:00 PM 56.6385 -54.0464 237° Southwest  Level FlightAware Approximate
Wed 03:31:50 PM 56.5833 -54.1500 228° Southwest 400 460 36,000  Level Gander Center
Wed 03:32:00 PM 56.5734 -54.2259 237° Southwest  Level FlightAware Approximate
Wed 03:32:50 PM 56.5333 -54.3500 246° West 400 460 36,000  Level Gander Center
Wed 03:33:00 PM 56.5080 -54.4048 237° Southwest  Level FlightAware Approximate
Wed 03:33:29 PM 56.4833 -54.4500 228° Southwest 400 460 36,000  Level Gander Center
Wed 03:34:29 PM 56.4333 -54.6000 239° Southwest 390 449 36,000  Level Gander Center
Wed 03:35:29 PM 56.3667 -54.7667 234° Southwest 390 449 36,000  Level Gander Center
Wed 03:35:50 PM 56.3500 -54.8000 228° Southwest 390 449 36,000  Level Gander Center
Wed 03:38:00 PM 56.2081 -55.1829 236° Southwest  Level FlightAware Approximate
Wed 03:44:50 PM 55.7833 -56.3167 232° Southwest 410 472 36,000  Level Gander Center
Wed 03:45:00 PM 55.7416 -56.4005 236° Southwest  Level FlightAware Approximate
Wed 03:45:50 PM 55.7333 -56.4833 242° Southwest 410 472 36,000  Level Gander Center
Wed 03:46:00 PM 55.6740 -56.5721 235° Southwest  Level FlightAware Approximate
Wed 03:46:50 PM 55.6500 -56.6333 225° Southwest 410 472 36,000  Level Gander Center
Wed 03:47:00 PM 55.6061 -56.7431 235° Southwest  Level FlightAware Approximate
Wed 03:47:50 PM 55.5667 -56.7833 226° Southwest 410 472 36,000  Level Gander Center
Wed 03:48:00 PM 55.5380 -56.9134 235° Southwest  Level FlightAware Approximate
Wed 03:48:50 PM 55.5167 -56.9500 242° Southwest 410 472 36,000  Level Gander Center
Wed 03:49:00 PM 55.4845 -57.0905 232° Southwest  Level FlightAware Approximate
Wed 03:49:50 PM 55.4333 -57.1000 226° Southwest 410 472 36,000  Level Gander Center
Wed 03:50:00 PM 55.4124 -57.2551 232° Southwest  Level FlightAware Approximate
Wed 03:50:50 PM 55.3667 -57.2500 232° Southwest 400 460 36,000  Level Gander Center
Wed 03:51:50 PM 55.2833 -57.4167 229° Southwest 400 460 36,000  Level Gander Center
Wed 03:52:50 PM 55.2333 -57.5667 240° Southwest 400 460 36,000  Level Gander Center
Wed 03:53:50 PM 55.1500 -57.7167 226° Southwest 400 460 36,000  Level Gander Center
Wed 03:54:50 PM 55.0833 -57.8667 232° Southwest 410 472 36,000  Level Gander Center
Wed 03:55:50 PM 55.0167 -58.0167 232° Southwest 410 472 36,000  Level Gander Center
Wed 03:56:50 PM 54.9500 -58.1667 232° Southwest 410 472 36,000  Level Gander Center
Wed 03:57:50 PM 54.8833 -58.3167 232° Southwest 410 472 36,000  Level Gander Center
Wed 03:58:50 PM 54.8000 -58.4667 226° Southwest 400 460 36,000  Level Gander Center
Wed 03:59:50 PM 54.7333 -58.6167 232° Southwest 400 460 36,000  Level Gander Center
Wed 04:00:50 PM 54.6500 -58.8000 232° Southwest 410 472 36,000  Level Gander Center
Wed 04:01:50 PM 54.6000 -58.9167 234° Southwest 400 460 36,000  Level Gander Center
Wed 04:02:50 PM 54.5167 -59.1000 232° Southwest 400 460 36,000  Level Gander Center
Wed 04:03:50 PM 54.4500 -59.2333 229° Southwest 410 472 36,000  Level Gander Center
Wed 04:04:48 PM 54.3667 -59.3667 223° Southwest 400 460 36,000  Level Gander Center
Wed 04:05:48 PM 54.3000 -59.5333 236° Southwest 400 460 36,000  Level Gander Center
Wed 04:06:48 PM 54.2167 -59.6833 226° Southwest 410 472 36,000  Level Gander Center
Wed 04:07:03 PM 54.2000 -59.7167 229° Southwest 410 472 36,000  Level Moncton Center
Wed 04:07:50 PM 54.1333 -59.8333 226° Southwest 410 472 36,000  Level Gander Center
Wed 04:08:50 PM 54.0667 -59.9667 230° Southwest 410 472 36,000  Level Gander Center
Wed 04:09:50 PM 54.0000 -60.1167 233° Southwest 410 472 36,000  Level Gander Center
Wed 04:10:50 PM 53.9333 -60.2667 233° Southwest 410 472 36,000  Level Gander Center
Wed 04:11:50 PM 53.8500 -60.4000 223° Southwest 410 472 36,000  Level Gander Center
Wed 04:12:50 PM 53.7833 -60.5500 233° Southwest 400 460 36,000  Level Gander Center
Wed 04:13:50 PM 53.7000 -60.6833 223° Southwest 400 460 36,000  Level Gander Center
Wed 04:14:50 PM 53.6333 -60.8333 233° Southwest 400 460 36,000  Level Gander Center
Wed 04:15:50 PM 53.5500 -60.9667 224° Southwest 400 460 36,000  Level Gander Center
Wed 04:17:50 PM 53.4000 -61.2500 228° Southwest 400 460 36,000  Level Gander Center
Wed 04:18:50 PM 53.3333 -61.4000 233° Southwest 410 472 36,000  Level Gander Center
Wed 04:19:50 PM 53.2667 -61.5333 230° Southwest 410 472 36,000  Level Gander Center
Wed 04:20:50 PM 53.1833 -61.6667 224° Southwest 410 472 36,000  Level Gander Center
Wed 04:21:50 PM 53.1167 -61.8167 234° Southwest 410 472 36,000  Level Gander Center
Wed 04:22:50 PM 53.0333 -61.9500 224° Southwest 410 472 36,000  Level Gander Center
Wed 04:23:50 PM 52.9667 -62.0833 230° Southwest 410 472 36,000  Level Gander Center
Wed 04:24:50 PM 52.8667 -62.2500 225° Southwest 410 472 36,000  Level Gander Center
Wed 04:25:50 PM 52.8000 -62.3833 230° Southwest 410 472 36,000  Level Gander Center
Wed 04:26:50 PM 52.7167 -62.5167 224° Southwest 410 472 36,000  Level Gander Center
Wed 04:27:50 PM 52.6333 -62.6667 228° Southwest 410 472 36,000  Level Gander Center
Wed 04:28:50 PM 52.5667 -62.8000 231° Southwest 410 472 36,000  Level Gander Center
Wed 04:29:50 PM 52.4833 -62.9333 224° Southwest 410 472 36,000  Level Gander Center
Wed 04:30:50 PM 52.4167 -63.0667 231° Southwest 410 472 36,000  Level Gander Center
Wed 04:31:50 PM 52.3333 -63.2000 224° Southwest 410 472 36,000  Level Gander Center
Wed 04:32:50 PM 52.2667 -63.3333 231° Southwest 410 472 36,000  Level Gander Center
Wed 04:33:50 PM 52.1667 -63.4833 223° Southwest 410 472 36,000  Level Gander Center
Wed 04:34:50 PM 52.0833 -63.6167 225° Southwest 410 472 36,000  Level Gander Center
Wed 04:35:50 PM 52.0167 -63.7500 231° Southwest 410 472 36,000  Level Gander Center
Wed 04:36:50 PM 51.9333 -63.8833 225° Southwest 410 472 36,000  Level Gander Center
Wed 04:37:50 PM 51.8667 -64.0167 231° Southwest 410 472 36,000  Level Gander Center
Wed 04:38:50 PM 51.7667 -64.1500 220° Southwest 410 472 36,000  Level Gander Center
Wed 04:39:50 PM 51.7000 -64.2833 231° Southwest 410 472 36,000  Level Gander Center
Wed 04:40:50 PM 51.6167 -64.4000 221° Southwest 410 472 36,000  Level Gander Center
Wed 04:41:50 PM 51.5500 -64.5333 231° Southwest 410 472 36,000  Level Gander Center
Wed 04:42:50 PM 51.4667 -64.6667 225° Southwest 410 472 36,000  Level Gander Center
Wed 04:43:50 PM 51.3667 -64.8000 220° Southwest 410 472 36,000  Level Gander Center
Wed 04:44:50 PM 51.3000 -64.9167 228° Southwest 410 472 36,000  Level Gander Center
Wed 04:45:50 PM 51.2167 -65.0667 228° Southwest 410 472 36,000  Level Gander Center
Wed 04:46:50 PM 51.1333 -65.2000 225° Southwest 410 472 36,000  Level Gander Center
Wed 04:47:50 PM 51.0500 -65.3333 225° Southwest 410 472 36,000  Level Gander Center
Wed 04:49:49 PM 50.9000 -65.5333 220° Southwest 410 472 36,000  Level Montreal Center
Wed 04:50:49 PM 50.8000 -65.6667 220° Southwest 410 472 36,000  Level Montreal Center
Wed 04:51:49 PM 50.7333 -65.7833 228° Southwest 410 472 36,000  Level Montreal Center
Wed 04:52:49 PM 50.6500 -65.9333 229° Southwest 410 472 36,000  Level Montreal Center
Wed 04:53:49 PM 50.5667 -66.0333 217° Southwest 410 472 36,000  Level Montreal Center
Wed 04:54:49 PM 50.4833 -66.1833 229° Southwest 410 472 36,000  Level Montreal Center
Wed 04:55:49 PM 50.4000 -66.3167 226° Southwest 410 472 36,000  Level Montreal Center
Wed 04:56:49 PM 50.3333 -66.4333 228° Southwest 410 472 36,000  Level Montreal Center
Wed 04:57:49 PM 50.2333 -66.5500 217° Southwest 410 472 36,000  Level Montreal Center
Wed 04:59:03 PM 50.1333 -66.7167 227° Southwest 410 472 36,000  Level Moncton Center
Wed 05:00:03 PM 50.0500 -66.8667 229° Southwest 420 483 36,000  Level Moncton Center
Wed 05:00:19 PM 50.0333 -66.8667 180° South 410 472 36,000  Level Montreal Center
Wed 05:01:19 PM 49.9500 -66.9833 222° Southwest 410 472 36,000  Level Montreal Center
Wed 05:02:03 PM 49.8833 -67.1333 235° Southwest 410 472 36,000  Level Moncton Center
Wed 05:02:19 PM 49.8667 -67.1333 180° South 410 472 36,000  Level Montreal Center
Wed 05:03:19 PM 49.7833 -67.2500 222° Southwest 410 472 36,000  Level Montreal Center
Wed 05:04:19 PM 49.7000 -67.3667 222° Southwest 410 472 36,000  Level Montreal Center
Wed 05:05:19 PM 49.6167 -67.4833 222° Southwest 410 472 36,000  Level Montreal Center
Wed 05:06:19 PM 49.5333 -67.6167 226° Southwest 410 472 36,000  Level Montreal Center
Wed 05:07:19 PM 49.4333 -67.7333 217° Southwest 410 472 36,000  Level Montreal Center
Wed 05:08:19 PM 49.3667 -67.8500 229° Southwest 420 483 36,000  Level Montreal Center
Wed 05:09:19 PM 49.2667 -67.9667 217° Southwest 420 483 36,000  Level Montreal Center
Wed 05:10:19 PM 49.2000 -68.1167 236° Southwest 420 483 36,000  Level Montreal Center
Wed 05:11:19 PM 49.1167 -68.2333 223° Southwest 420 483 36,000  Level Montreal Center
Wed 05:12:19 PM 49.0500 -68.3833 236° Southwest 420 483 36,000  Level Montreal Center
Wed 05:13:19 PM 49.0000 -68.5333 243° Southwest 420 483 36,000  Level Montreal Center
Wed 05:14:19 PM 48.9333 -68.7000 239° Southwest 420 483 36,000  Level Montreal Center
Wed 05:15:19 PM 48.8667 -68.8500 236° Southwest 420 483 36,000  Level Montreal Center
Wed 05:16:19 PM 48.8167 -69.0167 246° West 420 483 36,000  Level Montreal Center
Wed 05:17:19 PM 48.7500 -69.1500 233° Southwest 420 483 36,000  Level Montreal Center
Wed 05:23:12 PM 48.4180 -70.0930 233° Southwest 428 493 36,000  Level FlightAware ADS-B
Wed 05:23:52 PM 48.3790 -70.1940 240° Southwest 427 491 36,000  Level FlightAware ADS-B
Wed 05:24:32 PM 48.3380 -70.2960 239° Southwest 426 490 36,000  Level FlightAware ADS-B
Wed 05:25:17 PM 48.2960 -70.4000 239° Southwest 427 491 36,000  Level FlightAware ADS-B
Wed 05:26:22 PM 48.2310 -70.5610 239° Southwest 425 489 36,000  Level FlightAware ADS-B
Wed 05:27:07 PM 48.1810 -70.6870 239° Southwest 425 489 36,000  Level FlightAware ADS-B
Wed 05:27:47 PM 48.1400 -70.7870 238° Southwest 424 488 36,000  Level FlightAware ADS-B
Wed 05:28:32 PM 48.0940 -70.9000 239° Southwest 424 488 36,000  Level FlightAware ADS-B
Wed 05:29:12 PM 48.0540 -71.0000 239° Southwest 425 489 36,000  Level FlightAware ADS-B
Wed 05:29:57 PM 48.0080 -71.1100 238° Southwest 426 490 36,000  Level FlightAware ADS-B
Wed 05:30:37 PM 47.9660 -71.2120 238° Southwest 427 491 36,000  Level FlightAware ADS-B
Wed 05:31:22 PM 47.9190 -71.3240 238° Southwest 427 491 36,000  Level FlightAware ADS-B
Wed 05:32:02 PM 47.8780 -71.4240 239° Southwest 427 491 36,000  Level FlightAware ADS-B
Wed 05:32:47 PM 47.8310 -71.5370 238° Southwest 428 493 36,000  Level FlightAware ADS-B
Wed 05:33:27 PM 47.7890 -71.6360 238° Southwest 428 493 36,000  Level FlightAware ADS-B
Wed 05:34:07 PM 47.7480 -71.7360 239° Southwest 428 493 36,000  Level FlightAware ADS-B
Wed 05:34:52 PM 47.7000 -71.8480 238° Southwest 427 491 36,000  Level FlightAware ADS-B
Wed 05:35:32 PM 47.6580 -71.9460 238° Southwest 426 490 36,000  Level FlightAware ADS-B
Wed 05:36:17 PM 47.6110 -72.0570 238° Southwest 424 488 36,000  Level FlightAware ADS-B
Wed 05:36:57 PM 47.5700 -72.1550 238° Southwest 423 487 36,000  Level FlightAware ADS-B
Wed 05:37:37 PM 47.5280 -72.2520 237° Southwest 422 486 36,000  Level FlightAware ADS-B
Wed 05:38:22 PM 47.4810 -72.3610 237° Southwest 421 484 36,000  Level FlightAware ADS-B
Wed 05:39:02 PM 47.4390 -72.4580 237° Southwest 421 484 36,000  Level FlightAware ADS-B
Wed 05:39:47 PM 47.3930 -72.5660 238° Southwest 421 484 36,000  Level FlightAware ADS-B
Wed 05:40:27 PM 47.3510 -72.6630 237° Southwest 421 484 36,000  Level FlightAware ADS-B
Wed 05:41:12 PM 47.3030 -72.7710 237° Southwest 421 484 36,000  Level FlightAware ADS-B
Wed 05:41:52 PM 47.2620 -72.8650 237° Southwest 422 486 36,000  Level FlightAware ADS-B
Wed 05:42:32 PM 47.2210 -72.9610 238° Southwest 422 486 36,000  Level FlightAware ADS-B
Wed 05:43:17 PM 47.1720 -73.0710 237° Southwest 423 487 36,000  Level FlightAware ADS-B
Wed 05:43:57 PM 47.1290 -73.1680 237° Southwest 425 489 36,000  Level FlightAware ADS-B
Wed 05:44:37 PM 47.0860 -73.2640 237° Southwest 426 490 36,000  Level FlightAware ADS-B
Wed 05:45:22 PM 47.0380 -73.3700 236° Southwest 427 491 36,000  Level FlightAware ADS-B
Wed 05:46:02 PM 46.9940 -73.4690 237° Southwest 429 494 36,000  Level FlightAware ADS-B
Wed 05:46:47 PM 46.9450 -73.5780 237° Southwest 431 496 36,000  Level FlightAware ADS-B
Wed 05:47:27 PM 46.9030 -73.6710 237° Southwest 432 497 36,000  Level FlightAware ADS-B
Wed 05:48:07 PM 46.8570 -73.7730 237° Southwest 432 497 36,000  Level FlightAware ADS-B
Wed 05:48:52 PM 46.8110 -73.8750 237° Southwest 434 499 36,000  Level FlightAware ADS-B
Wed 05:49:32 PM 46.7640 -73.9770 236° Southwest 435 501 36,000  Level FlightAware ADS-B
Wed 05:50:17 PM 46.7140 -74.0890 237° Southwest 436 502 36,000  Level FlightAware ADS-B
Wed 05:51:07 PM 46.6570 -74.2110 236° Southwest 438 504 36,000  Level FlightAware ADS-B
Wed 05:51:52 PM 46.6070 -74.3210 237° Southwest 439 505 36,000  Level FlightAware ADS-B
Wed 05:52:27 PM 46.5670 -74.4060 236° Southwest 440 506 36,000  Level FlightAware ADS-B
Wed 05:53:07 PM 46.5220 -74.5020 236° Southwest 441 507 36,000  Level FlightAware ADS-B
Wed 05:53:52 PM 46.4700 -74.6140 236° Southwest 443 510 36,000  Level FlightAware ADS-B
Wed 05:54:32 PM 46.4250 -74.7100 236° Southwest 444 511 36,000  Level FlightAware ADS-B
Wed 05:55:17 PM 46.3730 -74.8230 236° Southwest 445 512 36,000  Level FlightAware ADS-B
Wed 05:55:57 PM 46.3280 -74.9160 235° Southwest 446 513 36,000  Level FlightAware ADS-B
Wed 05:56:42 PM 46.2730 -75.0310 235° Southwest 446 513 36,000  Level FlightAware ADS-B
Wed 05:57:22 PM 46.2270 -75.1300 236° Southwest 446 513 36,000  Level FlightAware ADS-B
Wed 05:57:57 PM 46.1860 -75.2150 235° Southwest 446 513 36,000  Level FlightAware ADS-B
Wed 05:58:47 PM 46.1290 -75.3350 236° Southwest 445 512 36,000  Level FlightAware ADS-B
Wed 05:59:27 PM 46.0830 -75.4300 235° Southwest 447 514 36,000  Level FlightAware ADS-B
Wed 06:00:22 PM 46.0210 -75.5600 236° Southwest 445 512 36,000  Level FlightAware ADS-B
Wed 06:01:07 PM 45.9680 -75.6690 235° Southwest 444 511 36,000  Level FlightAware ADS-B
Wed 06:01:47 PM 45.9200 -75.7680 235° Southwest 443 510 36,000  Level FlightAware ADS-B
Wed 06:02:27 PM 45.8690 -75.8720 235° Southwest 443 510 36,000  Level FlightAware ADS-B
Wed 06:03:42 PM 45.7860 -76.0450 236° Southwest 439 505 36,000  Level FlightAware ADS-B
Wed 06:04:22 PM 45.7430 -76.1330 235° Southwest 439 505 36,000  Level FlightAware ADS-B
Wed 06:05:07 PM 45.6890 -76.2450 235° Southwest 437 503 36,000  Level FlightAware ADS-B
Wed 06:05:42 PM 45.6490 -76.3280 235° Southwest 436 502 36,000  Level FlightAware ADS-B
Wed 06:06:27 PM 45.5950 -76.4360 234° Southwest 435 501 36,000  Level FlightAware ADS-B
Wed 06:07:12 PM 45.5460 -76.5340 234° Southwest 435 501 36,000  Level FlightAware ADS-B
Wed 06:07:47 PM 45.5040 -76.6210 235° Southwest 436 502 36,000  Level FlightAware ADS-B
Wed 06:08:37 PM 45.4440 -76.7420 235° Southwest 437 503 36,000  Level FlightAware ADS-B
Wed 06:09:17 PM 45.3970 -76.8360 235° Southwest 439 505 36,000  Level FlightAware ADS-B
Wed 06:09:57 PM 45.3520 -76.9280 235° Southwest 442 509 36,000  Level FlightAware ADS-B
Wed 06:10:42 PM 45.2990 -77.0330 234° Southwest 445 512 36,000  Level FlightAware ADS-B
Wed 06:11:22 PM 45.2490 -77.1330 235° Southwest 447 514 36,000  Level FlightAware ADS-B
Wed 06:12:02 PM 45.2040 -77.2240 235° Southwest 449 517 36,000  Level FlightAware ADS-B
Wed 06:12:47 PM 45.1460 -77.3360 234° Southwest 452 520 36,000  Level FlightAware ADS-B
Wed 06:13:27 PM 45.0970 -77.4330 234° Southwest 453 521 36,000  Level FlightAware ADS-B
Wed 06:14:12 PM 45.0430 -77.5390 234° Southwest 454 522 36,000  Level FlightAware ADS-B
Wed 06:14:52 PM 44.9930 -77.6370 234° Southwest 456 525 36,000  Level FlightAware ADS-B
Wed 06:15:32 PM 44.9440 -77.7320 234° Southwest 457 526 36,000  Level FlightAware ADS-B
Wed 06:16:17 PM 44.8910 -77.8360 234° Southwest 458 527 36,000 -141 Level FlightAware ADS-B
Wed 06:16:57 PM 44.8400 -77.9340 234° Southwest 454 522 35,800 -1,624 Descending FlightAware ADS-B
Wed 06:17:42 PM 44.7810 -78.0470 234° Southwest 458 527 33,700 -2,541 Descending FlightAware ADS-B
Wed 06:18:22 PM 44.7310 -78.1430 234° Southwest 452 520 32,200 -2,100 Descending FlightAware ADS-B
Wed 06:19:02 PM 44.6850 -78.2330 234° Southwest 448 516 30,900 -1,835 Descending FlightAware ADS-B
Wed 06:19:47 PM 44.6280 -78.3420 234° Southwest 442 509 29,600 -1,835 Descending FlightAware ADS-B
Wed 06:20:27 PM 44.5800 -78.4330 233° Southwest 434 499 28,300 -1,906 Descending FlightAware ADS-B
Wed 06:21:12 PM 44.5260 -78.5340 233° Southwest 424 488 26,900 -1,835 Descending FlightAware ADS-B
Wed 06:21:52 PM 44.4820 -78.6190 234° Southwest 418 481 25,700 -1,875 Descending FlightAware ADS-B
Wed 06:22:32 PM 44.4350 -78.7070 233° Southwest 409 471 24,400 -1,906 Descending FlightAware ADS-B
Wed 06:23:17 PM 44.3850 -78.8020 234° Southwest 400 460 23,000 -1,624 Descending FlightAware ADS-B
Wed 06:23:57 PM 44.3430 -78.8800 233° Southwest 393 452 22,100 -1,624 Descending FlightAware ADS-B
Wed 06:24:42 PM 44.2920 -78.9730 233° Southwest 393 452 20,700 -1,835 Descending FlightAware ADS-B
Wed 06:25:22 PM 44.2460 -79.0530 231° Southwest 390 449 19,500 -1,680 Descending FlightAware ADS-B
Wed 06:25:57 PM 44.2000 -79.1050 219° Southwest 382 440 18,600 -1,600 Descending FlightAware ADS-B
Wed 06:26:37 PM 44.1400 -79.1660 216° Southwest 378 435 17,500 -1,575 Descending FlightAware ADS-B
Wed 06:27:17 PM 44.0840 -79.2220 216° Southwest 367 422 16,500 -1,129 Descending FlightAware ADS-B
Wed 06:28:02 PM 44.0250 -79.2820 216° Southwest 348 400 15,900 -918 Descending FlightAware ADS-B
Wed 06:28:42 PM 43.9730 -79.3350 216° Southwest 329 379 15,200 -1,200 Descending FlightAware ADS-B
Wed 06:29:27 PM 43.9180 -79.3900 216° Southwest 323 372 14,200 -1,341 Descending FlightAware ADS-B
Wed 06:30:07 PM 43.8760 -79.4450 223° Southwest 321 369 13,300 -1,575 Descending FlightAware ADS-B
Wed 06:30:47 PM 43.8410 -79.5100 233° Southwest 315 362 12,100 -1,765 Descending FlightAware ADS-B
Wed 06:31:32 PM 43.8010 -79.5830 233° Southwest 308 354 10,800 -1,624 Descending FlightAware ADS-B
Wed 06:32:12 PM 43.7660 -79.6460 232° Southwest 304 350 9,800 -1,457 Descending FlightAware ADS-B
Wed 06:32:42 PM 43.7410 -79.6920 233° Southwest 302 348 9,100 -1,418 Descending FlightAware ADS-B
Wed 06:33:07 PM 43.7200 -79.7310 233° Southwest 299 344 8,500 -1,309 Descending FlightAware ADS-B
Wed 06:33:37 PM 43.6950 -79.7760 232° Southwest 295 339 7,900 -1,200 Descending FlightAware ADS-B
Wed 06:33:52 PM 43.6840 -79.7970 234° Southwest 294 338 7,600 -1,350 Descending FlightAware ADS-B
Wed 06:34:17 PM 43.6630 -79.8340 232° Southwest 284 327 7,000 -1,200 Descending FlightAware ADS-B
Wed 06:34:47 PM 43.6410 -79.8760 234° Southwest 261 300 6,500 -1,000 Descending FlightAware ADS-B
Wed 06:35:17 PM 43.6170 -79.9120 227° Southwest 246 283 6,000 -1,309 Descending FlightAware ADS-B
Wed 06:35:42 PM 43.5970 -79.9420 227° Southwest 244 281 5,300 -1,309 Descending FlightAware ADS-B
Wed 06:36:12 PM 43.5750 -79.9740 227° Southwest 234 269 4,800 -982 Descending FlightAware ADS-B
Wed 06:36:37 PM 43.5550 -80.0010 224° Southwest 224 258 4,400 -900 Descending FlightAware ADS-B
Wed 06:36:52 PM 43.5410 -80.0090 203° Southwest 213 245 4,200 -800 Descending FlightAware ADS-B
Wed 06:37:07 PM 43.5270 -80.0050 168° South 198 228 4,000 -400 Descending FlightAware ADS-B
Wed 06:37:22 PM 43.5180 -79.9920 134° Southeast 193 222 4,000  Level FlightAware ADS-B
Wed 06:37:37 PM 43.5130 -79.9760 113° Southeast 186 214 4,000  Level FlightAware ADS-B
Wed 06:37:57 PM 43.5080 -79.9550 108° East 172 198 4,000  Level FlightAware ADS-B
Wed 06:38:32 PM 43.5110 -79.9170 84° East 170 196 4,000  Level FlightAware ADS-B
Wed 06:38:47 PM 43.5140 -79.9000 76° East 168 193 4,000  Level FlightAware ADS-B
Wed 06:38:57 PM 43.5180 -79.8910 58° Northeast 168 193 4,000  Level FlightAware ADS-B
Wed 06:39:27 PM 43.5350 -79.8670 46° Northeast 171 197 4,000  Level FlightAware ADS-B
Wed 06:39:52 PM 43.5480 -79.8470 48° Northeast 171 197 4,000 -150 Level FlightAware ADS-B
Wed 06:40:07 PM 43.5570 -79.8350 44° Northeast 174 200 3,900 -800 Descending FlightAware ADS-B
Wed 06:40:37 PM 43.5740 -79.8110 46° Northeast 176 203 3,400 -1,000 Descending FlightAware ADS-B
Wed 06:41:07 PM 43.5900 -79.7860 49° Northeast 175 201 2,900 -982 Descending FlightAware ADS-B
Wed 06:41:32 PM 43.6040 -79.7660 46° Northeast 174 200 2,500 -873 Descending FlightAware ADS-B
Wed 06:42:02 PM 43.6210 -79.7420 46° Northeast 171 197 2,100 -873 Descending FlightAware ADS-B
Wed 06:42:27 PM 43.6340 -79.7220 48° Northeast 162 186 1,700 -873 Descending FlightAware ADS-B
Wed 06:42:57 PM 43.6480 -79.7020 46° Northeast 140 161 1,300 -800 Descending FlightAware ADS-B
Wed 06:43:12 PM 43.6550 -79.6920 46° Northeast 137 158 1,100 -750 Descending FlightAware ADS-B
Wed 06:43:37 PM 43.6660 -79.6760 46° Northeast 138 159 800 -327 Descending FlightAware ADS-B
Wed 06:44:07 PM 43.6780 -79.6600 44° Northeast 138 159 800  Level FlightAware ADS-B

Login

Don't have an account? Register now (free) for customized features, flight alerts, and more!